Aérodrome :
LOGIN :

S'inscrire | Disclaimer

   EN    FR    IT 

 










Légende :    VFR   VFR Marginal   IFR   IFR Intensif   IFR Très Intensif
Visi : 
Plafond : 
>= 8 km
>= 3000ft
5 à 8 km
1000 à 3000 ft
1500m à 5 km
500 à 1000 ft
800 à 1500m
200 à 500 ft
< 800m
< 200 ft
Symboles :   Orages  Brouillard  Fortes neiges  Fortes précipitations  Vent > 20 kt
SIGMETs :   Divers  Orages  Givrage  Turbulence  Onde Orograph.  Cendres Volcan.






- Altitude de l'aérodrome : 81 ft
- Code IATA : SCS


EGPM - Scatsta

DERNIER METAR :
  • 290920Z AUTO 30013KT 9999 FEW028/// SCT033/// BKN047/// 06/M01 Q1042

METARs EXPIRÉS :
  • 290850Z AUTO 28014KT 9999 FEW028/// BKN043/// 06/01 Q1042
  • 290820Z AUTO 28014KT 9999 BKN027/// BKN043/// 05/01 Q1042
  • 290750Z AUTO 26011KT 9999 BKN037/// 05/00 Q1042
  • 290720Z AUTO 25014KT 9999 FEW030/// OVC046/// 04/M00 Q1043
  • 290650Z AUTO 26012KT 9999 FEW037/// OVC049/// 04/M01 Q1043

TAF TAF EGPM
Valide du 29 à 06h jusqu'au 29 à 15h UTC


290458Z 2906/2915 27009KT 9999 BKN045
TEMPO 2906/2915 29018G28KT
PROB30
TEMPO 2912/2915 5000 SHRA BKN012



MET'MAP, la Météo Aéronautique d'un coup d'oeil ! - Copyright ORBIFLY Décembre 2007 - Disclaimer

ORBIFLY MET'MAP TEAM :

Programmation & Développement : Alexandra Zaïnal
Sur une idée originale de : Baudouin d'Aumeries
Assistance à la programmation : Marc-Olivier Méhu
Soutien technique & logistique : Manuel Goepfert

Contact : metmap@orbifly.com




SOURCES & CREDITS :

   NOAA